Time;durP1;ratioP1;P1;durP2;ratioP2;P2;SDS_P1;SDS_P2;PMS_P1;PMS_P2;Temp;Humidity;BMP_temperature;BMP_pressure;BME280_temperature;BME280_humidity;BME280_pressure;Samples;Min_cycle;Max_cycle;Signal;HPM_P1;HPM_P2
2023/10/26 00:00:53;;;;;;;53.45;24.73;;;;;;;9.33;100.00;99361.53;5030955;28;20029;-82
2023/10/26 00:03:18;;;;;;;44.13;23.13;;;;;;;9.27;100.00;99357.97;5029644;28;20030;-83
2023/10/26 00:05:44;;;;;;;47.55;23.48;;;;;;;9.26;100.00;99366.22;5031042;28;20276;-82
2023/10/26 00:08:09;;;;;;;52.17;23.17;;;;;;;9.25;100.00;99375.25;5030916;28;20026;-82
2023/10/26 00:10:38;;;;;;;46.35;21.73;;;;;;;9.21;100.00;99380.25;5046316;28;20320;-83
2023/10/26 00:13:03;;;;;;;47.53;22.98;;;;;;;9.20;100.00;99375.16;5046247;28;20067;-83
2023/10/26 00:15:28;;;;;;;48.15;22.27;;;;;;;9.16;100.00;99374.03;5029582;28;20065;-83
2023/10/26 00:17:54;;;;;;;51.22;23.08;;;;;;;9.09;100.00;99374.19;5030774;28;20100;-85
2023/10/26 00:20:19;;;;;;;46.60;22.58;;;;;;;9.16;100.00;99392.69;5046212;28;20481;-84
2023/10/26 00:22:45;;;;;;;51.13;22.08;;;;;;;9.16;100.00;99395.38;5046052;28;20458;-84
2023/10/26 00:25:10;;;;;;;47.25;23.08;;;;;;;9.06;100.00;99389.88;5033754;28;20033;-83
2023/10/26 00:27:40;;;;;;;44.92;20.50;;;;;;;9.06;100.00;99395.19;5034161;28;20092;-82
2023/10/26 00:30:10;;;;;;;41.92;20.75;;;;;;;9.03;100.00;99385.00;5034559;28;20030;-83
2023/10/26 00:32:36;;;;;;;43.22;20.30;;;;;;;9.09;100.00;99392.06;5034033;28;20029;-83
2023/10/26 00:35:01;;;;;;;43.75;20.45;;;;;;;9.05;100.00;99397.06;5049528;28;20022;-83
2023/10/26 00:37:27;;;;;;;37.97;19.02;;;;;;;8.94;100.00;99396.03;5033959;28;20072;-82
2023/10/26 00:39:52;;;;;;;33.20;16.95;;;;;;;8.92;100.00;99397.34;5033906;28;20151;-82
2023/10/26 00:42:17;;;;;;;35.58;17.20;;;;;;;8.92;100.00;99403.47;5032624;28;20032;-82
2023/10/26 00:44:46;;;;;;;35.45;18.10;;;;;;;8.91;100.00;99412.53;5033865;28;20064;-81
2023/10/26 00:47:13;;;;;;;32.83;16.98;;;;;;;8.84;100.00;99411.84;5033985;28;20033;-81
2023/10/26 00:49:40;;;;;;;36.30;16.75;;;;;;;8.83;100.00;99404.91;5049004;28;20029;-81
2023/10/26 00:52:06;;;;;;;35.47;17.38;;;;;;;8.85;100.00;99413.47;5032546;28;20086;-81
2023/10/26 00:54:32;;;;;;;36.83;18.08;;;;;;;8.79;100.00;99418.94;5033652;28;20136;-82
2023/10/26 00:56:59;;;;;;;35.47;17.83;;;;;;;8.82;100.00;99421.16;5048856;28;20029;-82
2023/10/26 00:59:27;;;;;;;37.33;19.10;;;;;;;8.75;100.00;99421.28;5033547;28;20044;-83
2023/10/26 01:01:54;;;;;;;39.45;17.98;;;;;;;8.76;100.00;99420.25;5048731;28;20363;-84
2023/10/26 01:04:19;;;;;;;37.95;18.02;;;;;;;8.74;100.00;99417.00;5033552;28;20478;-84
2023/10/26 01:06:44;;;;;;;38.20;18.27;;;;;;;8.84;100.00;99424.38;5033509;28;20041;-82
2023/10/26 01:09:10;;;;;;;43.17;19.98;;;;;;;8.83;100.00;99426.22;5033936;28;20099;-82
2023/10/26 01:11:39;;;;;;;40.15;19.50;;;;;;;8.85;100.00;99434.00;5033260;28;20045;-83
2023/10/26 01:14:06;;;;;;;40.58;19.65;;;;;;;8.81;100.00;99435.50;5032178;28;20496;-83
2023/10/26 01:16:31;;;;;;;34.22;18.23;;;;;;;8.73;100.00;99428.72;5031991;28;20029;-83
2023/10/26 01:19:03;;;;;;;39.72;19.73;;;;;;;8.64;100.00;99417.59;5048702;28;20044;-84
2023/10/26 01:21:29;;;;;;;42.15;19.05;;;;;;;8.68;100.00;99425.94;5033203;28;20038;-83
2023/10/26 01:23:55;;;;;;;44.38;19.90;;;;;;;8.69;100.00;99430.22;5033181;28;20022;-83
2023/10/26 01:26:20;;;;;;;41.78;20.67;;;;;;;8.62;100.00;99427.69;5033247;28;20037;-84
2023/10/26 01:28:46;;;;;;;42.72;19.80;;;;;;;8.60;100.00;99428.97;5033127;28;20075;-83
2023/10/26 01:31:17;;;;;;;46.17;19.42;;;;;;;8.58;100.00;99423.06;5031743;28;20040;-84
2023/10/26 01:33:43;;;;;;;45.72;19.52;;;;;;;8.60;100.00;99429.78;5033142;28;20108;-84
2023/10/26 01:36:09;;;;;;;45.25;21.33;;;;;;;8.56;100.00;99425.16;5032900;28;20064;-84
2023/10/26 01:38:35;;;;;;;41.75;19.42;;;;;;;8.51;100.00;99433.06;5032975;28;20461;-84
2023/10/26 01:41:00;;;;;;;40.05;19.70;;;;;;;8.48;100.00;99429.00;5031544;28;20041;-84
2023/10/26 01:43:25;;;;;;;45.97;20.67;;;;;;;8.43;100.00;99430.75;5033012;28;20065;-84
2023/10/26 01:45:51;;;;;;;44.30;19.83;;;;;;;8.31;100.00;99412.91;5032810;28;20497;-83
2023/10/26 01:48:16;;;;;;;46.28;19.70;;;;;;;8.33;100.00;99426.81;5031537;28;20029;-83
2023/10/26 01:50:41;;;;;;;41.10;20.40;;;;;;;8.27;100.00;99425.06;5048065;28;20113;-84
2023/10/26 01:53:07;;;;;;;43.28;19.60;;;;;;;8.25;100.00;99427.16;5032748;28;20051;-81
2023/10/26 01:55:32;;;;;;;40.58;18.75;;;;;;;8.17;100.00;99416.06;5047941;28;20030;-82
2023/10/26 01:57:57;;;;;;;37.90;19.00;;;;;;;8.14;100.00;99422.66;5032628;28;20474;-81
2023/10/26 02:00:23;;;;;;;46.03;18.35;;;;;;;8.05;100.00;99424.03;5032741;28;20400;-84
2023/10/26 02:02:49;;;;;;;39.05;18.10;;;;;;;8.02;100.00;99429.81;5031349;28;20025;-85
2023/10/26 02:05:15;;;;;;;40.25;18.75;;;;;;;7.99;100.00;99435.63;5032706;28;20057;-85
2023/10/26 02:07:40;;;;;;;43.30;18.80;;;;;;;7.86;100.00;99415.38;5032897;28;20485;-85
2023/10/26 02:10:06;;;;;;;43.97;18.20;;;;;;;7.91;100.00;99431.47;5047959;28;20044;-85
2023/10/26 02:12:31;;;;;;;40.95;18.05;;;;;;;7.86;100.00;99418.03;5047838;28;20021;-83
2023/10/26 02:14:56;;;;;;;38.70;17.45;;;;;;;7.83;100.00;99417.69;5032569;28;20029;-84
2023/10/26 02:17:22;;;;;;;40.80;18.08;;;;;;;7.73;100.00;99415.59;5047635;28;20079;-83
2023/10/26 02:19:47;;;;;;;45.08;18.35;;;;;;;7.70;100.00;99414.22;5047580;28;20033;-84
2023/10/26 02:22:14;;;;;;;44.00;18.65;;;;;;;7.73;100.00;99424.38;5031187;28;20045;-84
2023/10/26 02:24:41;;;;;;;38.35;17.98;;;;;;;7.69;100.00;99417.91;5032321;28;20036;-84
2023/10/26 02:27:06;;;;;;;46.40;16.88;;;;;;;7.65;100.00;99414.09;5032376;28;20457;-83
2023/10/26 02:29:32;;;;;;;35.85;17.27;;;;;;;7.64;100.00;99406.34;5032269;28;20036;-83
2023/10/26 02:31:57;;;;;;;44.63;18.58;;;;;;;7.64;100.00;99412.47;5032144;28;20025;-83
2023/10/26 02:34:22;;;;;;;43.95;17.75;;;;;;;7.63;100.00;99405.53;5030975;28;20040;-83
2023/10/26 02:36:47;;;;;;;42.75;17.60;;;;;;;7.63;100.00;99404.72;5047497;28;20029;-84
2023/10/26 02:39:13;;;;;;;46.35;18.77;;;;;;;7.65;100.00;99416.75;5047369;28;20458;-83
2023/10/26 02:41:38;;;;;;;44.20;17.30;;;;;;;7.66;100.00;99405.06;5030677;28;20044;-83
2023/10/26 02:44:03;;;;;;;351.38;30.17;;;;;;;7.58;100.00;99402.75;5032036;28;20543;-84
2023/10/26 02:46:29;;;;;;;127.40;19.98;;;;;;;7.61;100.00;99412.13;5031486;28;20445;-83
2023/10/26 02:48:54;;;;;;;38.53;16.13;;;;;;;7.55;100.00;99408.53;5032012;28;20029;-83
2023/10/26 02:51:19;;;;;;;42.30;16.63;;;;;;;7.48;100.00;99405.16;5031991;28;20545;-84
2023/10/26 02:53:45;;;;;;;39.40;16.88;;;;;;;7.50;100.00;99411.03;5047295;28;20367;-84
2023/10/26 02:56:10;;;;;;;39.72;16.83;;;;;;;7.52;100.00;99421.47;5047063;28;20058;-83
2023/10/26 02:58:35;;;;;;;47.35;17.08;;;;;;;7.43;100.00;99418.31;5047344;28;20405;-85
2023/10/26 03:01:00;;;;;;;41.38;16.60;;;;;;;7.43;100.00;99426.31;5047052;28;20083;-84
2023/10/26 03:03:26;;;;;;;36.70;16.05;;;;;;;7.36;100.00;99420.28;5047274;28;20032;-86
2023/10/26 03:05:52;;;;;;;38.90;14.93;;;;;;;7.37;100.00;99417.41;5030461;28;20546;-83
2023/10/26 03:08:18;;;;;;;100.13;18.73;;;;;;;7.29;100.00;99409.75;5047188;28;20045;-83
2023/10/26 03:10:43;;;;;;;160.13;20.33;;;;;;;7.29;100.00;99414.28;5047067;28;20140;-83
2023/10/26 03:13:09;;;;;;;421.80;29.20;;;;;;;7.20;100.00;99397.00;5046994;28;20025;-83
2023/10/26 03:15:34;;;;;;;323.63;26.05;;;;;;;7.17;100.00;99408.09;5030408;28;20120;-83
2023/10/26 03:17:59;;;;;;;155.20;19.10;;;;;;;7.12;100.00;99406.94;5030127;28;20180;-84
2023/10/26 03:20:25;;;;;;;241.77;22.42;;;;;;;7.05;100.00;99414.19;5046833;28;20030;-84
2023/10/26 03:22:50;;;;;;;229.38;21.15;;;;;;;6.98;100.00;99423.31;5031557;28;20017;-84
2023/10/26 03:25:16;;;;;;;115.15;17.27;;;;;;;6.89;100.00;99420.13;5046877;28;20056;-84
2023/10/26 03:27:42;;;;;;;92.57;17.60;;;;;;;6.82;100.00;99414.09;5030218;28;20044;-85
2023/10/26 03:30:08;;;;;;;38.40;14.90;;;;;;;6.87;100.00;99422.19;5031435;28;20042;-85
2023/10/26 03:32:34;;;;;;;32.85;15.00;;;;;;;6.81;100.00;99426.56;5031535;28;20044;-85
2023/10/26 03:35:00;;;;;;;41.55;16.20;;;;;;;6.70;100.00;99415.91;5031275;28;20025;-85
2023/10/26 03:37:25;;;;;;;41.38;15.10;;;;;;;6.72;100.00;99416.50;5031510;28;20061;-85
2023/10/26 03:39:51;;;;;;;36.22;14.52;;;;;;;6.70;100.00;99408.75;5031311;28;20113;-85
2023/10/26 03:42:16;;;;;;;44.30;15.07;;;;;;;6.67;100.00;99408.38;5031304;28;20035;-84
2023/10/26 03:44:41;;;;;;;49.47;14.82;;;;;;;6.68;100.00;99413.47;5031207;28;20466;-84
2023/10/26 03:47:07;;;;;;;47.65;18.50;;;;;;;6.70;100.00;99399.97;5029925;28;20080;-83
2023/10/26 03:49:34;;;;;;;43.15;17.42;;;;;;;6.78;100.00;99410.28;5046512;28;20482;-84
2023/10/26 03:51:59;;;;;;;54.30;18.17;;;;;;;6.80;100.00;99397.56;5031238;28;20052;-84
2023/10/26 03:54:25;;;;;;;65.10;19.77;;;;;;;6.88;100.00;99404.41;5029819;28;20366;-82
2023/10/26 03:56:50;;;;;;;142.37;22.90;;;;;;;6.98;100.00;99397.53;5046506;28;20033;-83
2023/10/26 03:59:15;;;;;;;204.55;23.65;;;;;;;7.04;100.00;99391.31;5032783;28;20268;-84
2023/10/26 04:01:40;;;;;;;239.32;26.50;;;;;;;7.08;100.00;99379.19;5033196;28;20038;-84
2023/10/26 04:04:06;;;;;;;174.38;23.58;;;;;;;7.13;100.00;99374.00;5034451;28;20393;-84
2023/10/26 04:06:31;;;;;;;179.00;23.02;;;;;;;7.16;100.00;99372.72;5049775;28;20029;-84
2023/10/26 04:08:56;;;;;;;206.90;22.77;;;;;;;7.24;100.00;99380.41;5033134;28;20021;-84
2023/10/26 04:11:24;;;;;;;159.25;22.08;;;;;;;7.26;100.00;99382.81;5049722;28;20112;-83
2023/10/26 04:13:49;;;;;;;208.27;22.92;;;;;;;7.18;100.00;99383.13;5034174;28;20148;-83
2023/10/26 04:16:15;;;;;;;150.57;20.48;;;;;;;7.24;100.00;99385.72;5034334;28;20119;-83
2023/10/26 04:18:40;;;;;;;174.05;21.48;;;;;;;7.31;100.00;99382.94;5034201;28;20088;-83
2023/10/26 04:21:05;;;;;;;427.65;33.20;;;;;;;7.29;100.00;99379.72;5034199;28;20022;-83
2023/10/26 04:23:31;;;;;;;208.20;24.67;;;;;;;7.33;100.00;99384.34;5049468;28;20030;-83
2023/10/26 04:25:57;;;;;;;316.58;28.92;;;;;;;7.32;100.00;99384.56;5034226;28;20036;-84
2023/10/26 04:28:22;;;;;;;251.18;25.35;;;;;;;7.27;100.00;99385.25;5049450;28;20041;-83
2023/10/26 04:30:48;;;;;;;108.93;19.30;;;;;;;7.31;100.00;99391.72;5034143;28;20386;-84
2023/10/26 04:33:17;;;;;;;176.98;21.33;;;;;;;7.31;100.00;99396.25;5034094;28;20493;-84
2023/10/26 04:35:43;;;;;;;152.18;19.88;;;;;;;7.27;100.00;99387.09;5033896;28;20124;-84
2023/10/26 04:38:09;;;;;;;215.65;25.90;;;;;;;7.21;100.00;99383.47;5033988;28;20124;-83
2023/10/26 04:40:38;;;;;;;190.30;22.85;;;;;;;7.13;100.00;99387.28;5033802;28;20116;-84
2023/10/26 04:43:03;;;;;;;147.43;20.17;;;;;;;7.11;100.00;99376.06;5032594;28;20030;-86
2023/10/26 04:45:29;;;;;;;175.32;22.13;;;;;;;7.18;100.00;99380.47;5049272;28;20024;-86
2023/10/26 04:47:54;;;;;;;118.45;21.52;;;;;;;7.14;100.00;99380.94;5033912;28;20108;-86
2023/10/26 04:50:19;;;;;;;201.70;23.45;;;;;;;7.05;100.00;99377.00;5033855;28;20033;-85
2023/10/26 04:52:44;;;;;;;265.83;26.30;;;;;;;7.02;100.00;99373.97;5032535;28;20032;-85
2023/10/26 04:55:10;;;;;;;331.35;28.67;;;;;;;6.94;100.00;99377.78;5049121;28;20021;-84
2023/10/26 04:57:35;;;;;;;253.18;24.08;;;;;;;6.89;100.00;99380.28;5033634;28;20106;-84
2023/10/26 05:00:00;;;;;;;252.65;26.15;;;;;;;6.81;100.00;99386.72;5049022;28;20402;-85
2023/10/26 05:02:26;;;;;;;149.13;20.88;;;;;;;6.81;100.00;99378.75;5033614;28;20037;-85
2023/10/26 05:04:51;;;;;;;152.40;21.48;;;;;;;6.73;100.00;99375.59;5033669;28;20029;-84
2023/10/26 05:07:16;;;;;;;210.82;21.88;;;;;;;6.72;100.00;99376.66;5033482;28;20124;-85
2023/10/26 05:09:42;;;;;;;194.90;22.85;;;;;;;6.69;100.00;99377.09;5031780;28;20033;-84
2023/10/26 05:12:07;;;;;;;176.95;23.60;;;;;;;6.72;100.00;99379.31;5033493;28;20363;-85
2023/10/26 05:14:32;;;;;;;74.80;15.60;;;;;;;6.77;100.00;99388.22;5048902;28;20021;-84
2023/10/26 05:16:58;;;;;;;101.05;18.38;;;;;;;6.79;100.00;99380.03;5033361;28;20029;-84
2023/10/26 05:19:23;;;;;;;235.52;24.80;;;;;;;6.67;100.00;99368.56;5033569;28;20045;-85
2023/10/26 05:21:48;;;;;;;146.07;18.42;;;;;;;6.65;100.00;99375.91;5048514;28;20203;-86
2023/10/26 05:24:13;;;;;;;221.52;23.13;;;;;;;6.58;100.00;99372.53;5033363;28;20084;-86
2023/10/26 05:26:39;;;;;;;214.02;22.20;;;;;;;6.58;100.00;99376.00;5033420;28;20473;-85
2023/10/26 05:29:04;;;;;;;210.90;23.33;;;;;;;6.63;100.00;99377.97;5033115;28;20035;-83
2023/10/26 05:31:29;;;;;;;139.18;18.65;;;;;;;6.62;100.00;99371.03;5048452;28;20032;-83
2023/10/26 05:33:55;;;;;;;204.73;21.90;;;;;;;6.63;100.00;99370.00;5048407;28;20042;-83
2023/10/26 05:36:20;;;;;;;112.25;17.48;;;;;;;6.62;100.00;99369.19;5033078;28;20053;-83
2023/10/26 05:38:45;;;;;;;194.57;21.83;;;;;;;6.69;100.00;99371.78;5032882;28;20029;-83
2023/10/26 05:41:11;;;;;;;231.68;24.95;;;;;;;6.68;100.00;99364.84;5048267;28;20022;-83
2023/10/26 05:43:37;;;;;;;122.18;17.20;;;;;;;6.77;100.00;99364.31;5048276;28;20473;-86
2023/10/26 05:46:04;;;;;;;167.30;19.42;;;;;;;6.90;100.00;99381.09;5032937;28;20053;-86
2023/10/26 05:48:31;;;;;;;106.10;18.08;;;;;;;6.92;100.00;99379.00;5033141;28;20029;-84
2023/10/26 05:50:57;;;;;;;105.75;17.05;;;;;;;6.96;100.00;99367.72;5032868;28;20032;-84
2023/10/26 05:53:22;;;;;;;174.00;21.08;;;;;;;7.03;100.00;99380.91;5031331;28;20394;-83
2023/10/26 05:55:58;;;;;;;170.07;19.58;;;;;;;7.11;100.00;99381.38;5033090;28;20033;-84
2023/10/26 05:58:24;;;;;;;106.30;17.58;;;;;;;7.08;100.00;99360.59;5031559;28;20021;-82
2023/10/26 06:00:49;;;;;;;110.47;17.80;;;;;;;7.16;100.00;99362.09;5032714;28;20025;-83
2023/10/26 06:03:15;;;;;;;125.70;19.25;;;;;;;7.17;100.00;99352.28;5031302;28;20029;-83
2023/10/26 06:05:40;;;;;;;158.80;21.52;;;;;;;7.15;100.00;99339.22;5032332;28;20553;-81
2023/10/26 06:08:05;;;;;;;321.45;27.27;;;;;;;7.12;100.00;99340.47;5032455;28;20031;-85
2023/10/26 06:10:31;;;;;;;117.97;19.58;;;;;;;7.13;100.00;99347.41;5047717;28;20033;-83
2023/10/26 06:19:42;;;;;;;171.63;21.23;;;;;;;6.75;100.00;99326.53;5010482;28;20425;-82
2023/10/26 06:22:07;;;;;;;245.85;25.27;;;;;;;6.84;100.00;99350.94;5028627;28;20116;-82
2023/10/26 06:24:33;;;;;;;268.92;27.83;;;;;;;6.87;100.00;99370.91;5031130;28;20034;-84
2023/10/26 06:26:58;;;;;;;161.77;20.10;;;;;;;6.83;100.00;99373.22;5047698;28;20026;-83
2023/10/26 06:29:23;;;;;;;255.15;23.85;;;;;;;6.78;100.00;99357.16;5032139;28;20367;-83
2023/10/26 06:31:49;;;;;;;161.60;19.95;;;;;;;6.84;100.00;99353.59;5032176;28;20030;-84
2023/10/26 06:34:14;;;;;;;196.73;21.00;;;;;;;6.89;100.00;99345.75;5047712;28;20036;-83
2023/10/26 06:36:39;;;;;;;191.27;20.30;;;;;;;6.93;100.00;99344.25;5030734;28;20495;-80
2023/10/26 06:39:04;;;;;;;253.85;23.80;;;;;;;6.84;100.00;99346.41;5047486;28;20039;-81
2023/10/26 06:41:30;;;;;;;252.38;25.73;;;;;;;6.95;100.00;99363.44;5032114;28;20096;-83
2023/10/26 06:43:56;;;;;;;255.27;25.63;;;;;;;6.93;100.00;99368.16;5030814;28;20060;-82
2023/10/26 06:46:21;;;;;;;268.88;24.45;;;;;;;6.98;100.00;99370.97;5030957;28;20025;-82
2023/10/26 06:48:47;;;;;;;314.02;27.38;;;;;;;6.83;100.00;99363.41;5030677;28;20037;-82
2023/10/26 06:51:12;;;;;;;241.48;24.80;;;;;;;6.84;100.00;99373.00;5030987;28;20028;-81
2023/10/26 06:53:37;;;;;;;260.70;25.55;;;;;;;6.82;100.00;99371.59;5047267;28;20033;-82
2023/10/26 06:56:12;;;;;;;70.03;14.88;;;;;;;6.92;100.00;99369.19;5030594;28;20100;-82
2023/10/26 06:58:39;;;;;;;136.65;18.42;;;;;;;6.97;100.00;99361.38;5047425;28;20444;-83
2023/10/26 07:01:07;;;;;;;188.98;19.85;;;;;;;7.06;100.00;99351.22;5047129;28;20497;-84
2023/10/26 07:03:32;;;;;;;168.50;18.92;;;;;;;7.15;100.00;99363.94;5047084;28;20036;-83
2023/10/26 07:06:03;;;;;;;171.45;18.67;;;;;;;7.19;100.00;99358.16;5046994;28;20030;-83
2023/10/26 07:08:29;;;;;;;279.20;24.45;;;;;;;7.19;100.00;99356.31;5031771;28;20021;-83
2023/10/26 07:10:54;;;;;;;320.88;27.52;;;;;;;7.20;100.00;99373.06;5046938;28;20037;-84
2023/10/26 07:13:20;;;;;;;215.13;22.05;;;;;;;7.12;100.00;99371.56;5030511;28;20449;-83
2023/10/26 07:15:45;;;;;;;194.73;19.75;;;;;;;7.08;100.00;99354.47;5031867;28;20108;-83
2023/10/26 07:18:12;;;;;;;207.93;21.90;;;;;;;7.23;100.00;99354.00;5031565;28;20032;-83
2023/10/26 07:20:38;;;;;;;239.00;22.98;;;;;;;7.28;100.00;99347.00;5031494;28;20037;-84
2023/10/26 07:23:04;;;;;;;150.95;17.75;;;;;;;7.36;100.00;99335.19;5031523;28;20493;-82
2023/10/26 07:25:29;;;;;;;243.73;22.92;;;;;;;7.44;100.00;99340.97;5031490;28;20033;-83
2023/10/26 07:27:54;;;;;;;249.13;24.02;;;;;;;7.41;100.00;99346.75;5046921;28;20033;-82
2023/10/26 07:30:20;;;;;;;147.77;18.35;;;;;;;7.52;100.00;99350.50;5031474;28;20534;-84
2023/10/26 07:32:46;;;;;;;174.50;21.25;;;;;;;7.58;100.00;99343.44;5032565;28;20033;-83
2023/10/26 07:38:34;;;;;;;202.27;20.88;;;;;;;7.32;100.00;99308.28;5035325;28;20048;-85
2023/10/26 07:41:03;;;;;;;197.20;21.42;;;;;;;7.66;100.00;99351.88;5034770;28;20405;-86
2023/10/26 07:43:57;;;;;;;145.70;19.45;;;;;;;7.77;100.00;99353.69;5050329;28;20496;-84
2023/10/26 07:46:22;;;;;;;250.35;22.45;;;;;;;7.61;100.00;99330.47;5033463;28;20155;-84
2023/10/26 07:48:48;;;;;;;317.33;26.02;;;;;;;7.61;100.00;99346.44;5049972;28;20108;-84
2023/10/26 08:01:58;;;;;;;;;;;;;;;;;;;;;
2023/10/26 08:08:09;;;;;;;158.10;16.73;;;;;;;7.55;100.00;99357.19;4974683;28;20586;-86
2023/10/26 08:11:10;;;;;;;160.05;17.95;;;;;;;7.90;100.00;99389.13;4966801;28;20490;-86
2023/10/26 09:04:57;;;;;;;97.97;17.08;;;;;;;8.36;100.00;99362.44;4818715;29;20075;-83
2023/10/26 09:07:26;;;;;;;191.30;21.35;;;;;;;8.35;100.00;99347.50;4909337;29;20469;-83
2023/10/26 09:31:17;;;;;;;49.85;16.05;;;;;;;8.87;100.00;99389.25;5033076;28;20052;-84
2023/10/26 09:51:09;;;;;;;100.72;19.85;;;;;;;8.43;100.00;99327.69;4998453;28;20048;-82
2023/10/26 10:11:08;;;;;;;;;;;;;;;;;;;;;
2023/10/26 10:28:01;;;;;;;50.15;18.08;;;;;;;8.88;100.00;99341.03;1447992;26;20046;-83
2023/10/26 10:30:45;;;;;;;48.80;18.27;;;;;;;8.90;100.00;99333.59;5012526;28;20133;-82
2023/10/26 10:33:19;;;;;;;55.65;19.80;;;;;;;8.98;100.00;99322.56;5012384;28;20276;-82
2023/10/26 10:36:03;;;;;;;51.53;19.38;;;;;;;9.05;100.00;99330.41;5027518;28;20026;-81
2023/10/26 10:38:30;;;;;;;49.65;19.77;;;;;;;8.92;100.00;99322.69;5027489;28;20033;-83
2023/10/26 10:40:55;;;;;;;51.10;20.25;;;;;;;8.92;100.00;99334.16;5027415;28;20025;-83
2023/10/26 10:43:37;;;;;;;50.53;20.20;;;;;;;8.96;100.00;99334.50;5012311;28;20037;-83
2023/10/26 10:46:21;;;;;;;51.53;20.83;;;;;;;8.98;100.00;99329.75;5012330;28;20497;-83
2023/10/26 10:48:59;;;;;;;53.17;20.27;;;;;;;8.98;100.00;99325.22;5011536;28;20129;-83
2023/10/26 10:51:31;;;;;;;48.05;20.23;;;;;;;9.02;100.00;99322.09;5012247;28;20048;-83
2023/10/26 10:53:57;;;;;;;47.00;19.40;;;;;;;9.08;100.00;99323.78;5010800;28;20110;-82
2023/10/26 10:56:23;;;;;;;51.83;20.00;;;;;;;9.09;100.00;99312.88;5012079;28;20073;-86
2023/10/26 10:58:50;;;;;;;47.80;18.88;;;;;;;9.12;100.00;99312.38;5027416;28;20489;-82
2023/10/26 11:01:20;;;;;;;48.83;20.23;;;;;;;9.16;100.00;99312.69;5010663;28;20030;-84
2023/10/26 11:03:46;;;;;;;44.17;19.13;;;;;;;9.19;100.00;99298.88;5012137;28;20116;-85
2023/10/26 11:06:16;;;;;;;45.72;20.60;;;;;;;9.24;100.00;99293.63;5027144;28;20033;-85
2023/10/26 11:08:41;;;;;;;44.45;18.30;;;;;;;9.41;100.00;99302.44;5010279;28;20081;-85
2023/10/26 11:11:06;;;;;;;43.22;20.48;;;;;;;9.53;100.00;99313.81;5027150;28;20398;-82
2023/10/26 11:13:32;;;;;;;44.65;18.75;;;;;;;9.58;100.00;99313.91;5027005;28;20433;-82
2023/10/26 11:15:57;;;;;;;38.35;17.80;;;;;;;9.72;100.00;99311.69;5026964;28;20062;-84
2023/10/26 11:18:22;;;;;;;37.30;17.48;;;;;;;9.70;100.00;99310.31;5027102;28;20045;-83
2023/10/26 11:20:48;;;;;;;36.25;16.67;;;;;;;9.75;100.00;99316.53;5011906;28;20026;-83
2023/10/26 11:23:16;;;;;;;35.10;16.45;;;;;;;9.68;100.00;99309.75;5026854;28;20040;-82
2023/10/26 11:25:41;;;;;;;33.38;17.35;;;;;;;9.72;100.00;99322.34;5026884;28;20037;-81
2023/10/26 11:28:07;;;;;;;32.42;17.65;;;;;;;9.71;100.00;99298.59;5026721;28;20430;-83
2023/10/26 11:30:50;;;;;;;36.67;17.40;;;;;;;9.85;100.00;99313.22;5011642;28;20069;-83
2023/10/26 11:33:35;;;;;;;;;;;;;;;9.97;100.00;99318.41;5027374;28;20398;-83
2023/10/26 11:36:02;;;;;;;31.70;15.52;;;;;;;9.88;100.00;99313.50;5010369;28;20388;-82
2023/10/26 11:38:27;;;;;;;34.80;18.65;;;;;;;9.85;100.00;99302.53;5026690;28;20113;-83
2023/10/26 11:40:53;;;;;;;31.77;17.50;;;;;;;9.89;100.00;99317.78;5011415;28;20046;-85
2023/10/26 11:43:36;;;;;;;32.65;17.83;;;;;;;9.97;100.00;99323.75;5011641;28;20030;-83
2023/10/26 11:46:04;;;;;;;37.10;18.75;;;;;;;10.02;100.00;99326.50;5011627;28;20036;-83
2023/10/26 11:48:33;;;;;;;34.80;18.75;;;;;;;10.02;100.00;99326.50;5010169;28;20071;-82
2023/10/26 11:50:59;;;;;;;32.47;17.58;;;;;;;10.01;100.00;99315.00;5011408;28;20087;-83
2023/10/26 11:53:26;;;;;;;36.65;19.27;;;;;;;10.06;100.00;99311.59;5026526;28;20026;-82
2023/10/26 11:55:52;;;;;;;36.45;18.73;;;;;;;10.04;100.00;99303.00;5011323;28;20022;-82
2023/10/26 11:58:18;;;;;;;39.13;19.73;;;;;;;10.04;100.00;99308.34;5011395;28;20051;-82
2023/10/26 12:00:43;;;;;;;31.70;18.00;;;;;;;9.99;100.00;99300.28;5011224;28;20036;-83
2023/10/26 12:03:09;;;;;;;34.97;19.20;;;;;;;9.90;100.00;99297.25;5026476;28;20115;-83
2023/10/26 12:05:34;;;;;;;35.88;19.02;;;;;;;9.94;100.00;99303.69;5011290;28;20486;-81
2023/10/26 12:08:00;;;;;;;35.60;19.33;;;;;;;9.85;100.00;99297.19;5026419;28;20030;-82
2023/10/26 12:10:25;;;;;;;39.80;20.38;;;;;;;9.89;100.00;99309.78;5011109;28;20037;-82
2023/10/26 12:12:51;;;;;;;37.35;19.23;;;;;;;9.84;100.00;99303.59;5011276;28;20034;-83
2023/10/26 12:15:18;;;;;;;44.10;21.95;;;;;;;9.96;100.00;99301.59;5011252;28;20359;-84
2023/10/26 12:17:44;;;;;;;40.95;20.88;;;;;;;9.99;100.00;99310.97;5009812;28;20030;-83
2023/10/26 12:20:10;;;;;;;35.92;18.42;;;;;;;9.99;100.00;99311.78;5027656;28;20025;-83
2023/10/26 12:22:35;;;;;;;37.20;20.08;;;;;;;9.98;100.00;99302.16;5029542;28;20064;-84
2023/10/26 12:25:06;;;;;;;39.65;19.73;;;;;;;10.12;100.00;99303.41;5029593;28;20065;-83
2023/10/26 12:27:32;;;;;;;37.85;20.45;;;;;;;10.20;100.00;99283.47;5014396;28;20030;-84
2023/10/26 12:29:57;;;;;;;42.85;21.50;;;;;;;10.44;100.00;99290.19;5014333;28;20113;-84
2023/10/26 12:32:23;;;;;;;42.67;20.95;;;;;;;10.59;100.00;99281.50;5014329;28;20030;-84
2023/10/26 12:34:49;;;;;;;38.50;19.35;;;;;;;10.85;100.00;99293.22;5014303;28;20479;-84
2023/10/26 12:37:14;;;;;;;36.30;18.90;;;;;;;10.82;100.00;99288.41;5029451;28;20040;-83
2023/10/26 12:39:39;;;;;;;33.22;18.15;;;;;;;10.77;100.00;99297.19;5014297;28;20105;-82
2023/10/26 12:42:05;;;;;;;31.17;18.40;;;;;;;10.67;100.00;99299.75;5014004;28;20030;-83
2023/10/26 12:44:30;;;;;;;34.08;18.85;;;;;;;10.54;100.00;99281.44;5014052;28;20105;-83
2023/10/26 12:46:55;;;;;;;33.70;18.73;;;;;;;10.49;100.00;99286.75;5014068;28;20033;-83
2023/10/26 12:49:21;;;;;;;33.28;17.52;;;;;;;10.44;100.00;99281.34;5014082;28;20105;-83
2023/10/26 12:51:47;;;;;;;30.77;17.60;;;;;;;10.23;100.00;99283.78;5013968;28;20033;-83
2023/10/26 12:54:12;;;;;;;29.95;16.38;;;;;;;10.10;100.00;99291.34;5029097;28;20022;-83
2023/10/26 12:56:37;;;;;;;31.45;17.63;;;;;;;9.91;100.00;99294.34;5013924;28;20479;-83
2023/10/26 12:59:03;;;;;;;33.35;16.88;;;;;;;9.85;100.00;99281.97;5028986;28;20026;-84
2023/10/26 13:01:28;;;;;;;33.45;17.33;;;;;;;9.87;100.00;99273.72;5013817;28;20030;-84
2023/10/26 13:03:53;;;;;;;35.35;18.73;;;;;;;10.11;100.00;99284.94;5029243;28;20022;-83
2023/10/26 13:06:19;;;;;;;36.80;18.98;;;;;;;10.45;100.00;99277.63;5028916;28;20018;-83
2023/10/26 13:08:45;;;;;;;35.15;18.27;;;;;;;10.60;100.00;99277.75;5013690;28;20428;-84
2023/10/26 13:11:12;;;;;;;32.13;20.45;;;;;;;10.33;100.00;99252.91;5013648;28;20060;-83
2023/10/26 13:13:41;;;;;;;34.58;19.75;;;;;;;10.46;100.00;99287.25;5028855;28;20033;-81
2023/10/26 13:16:09;;;;;;;32.92;20.13;;;;;;;10.43;100.00;99293.09;5013576;28;20033;-81
2023/10/26 13:18:37;;;;;;;31.90;19.30;;;;;;;10.39;100.00;99292.75;5013456;28;20026;-80
2023/10/26 13:21:04;;;;;;;33.88;19.58;;;;;;;10.41;100.00;99281.84;5013378;28;20030;-81
2023/10/26 13:23:29;;;;;;;30.88;16.95;;;;;;;10.41;100.00;99279.19;5028686;28;20037;-82
2023/10/26 13:25:55;;;;;;;36.28;19.48;;;;;;;10.33;100.00;99276.94;5013459;28;20367;-82
2023/10/26 13:28:21;;;;;;;34.70;20.33;;;;;;;10.37;100.00;99286.06;5013412;28;20033;-79
2023/10/26 13:30:46;;;;;;;36.67;22.40;;;;;;;10.45;100.00;99286.44;5012938;28;20038;-82
2023/10/26 13:33:59;;;;;;;;;;;;;;;;;;;;;
2023/10/26 13:36:29;;;;;;;29.25;17.45;;;;;;;9.99;100.00;99218.31;5005399;28;20046;-82
2023/10/26 13:40:43;;;;;;;;;;;;;;;;;;;;;
2023/10/26 13:43:06;;;;;;;32.25;19.35;;;;;;;10.24;100.00;99268.56;4991861;28;20545;-82
2023/10/26 13:45:38;;;;;;;32.00;18.77;;;;;;;10.00;100.00;99240.47;4985219;28;20049;-81